createdAt,value
2018-04-26T00:01:49.701Z,59.94
2018-04-26T00:04:23.292Z,60.07
2018-04-26T00:06:56.932Z,60.16
2018-04-26T00:09:30.468Z,60.03
2018-04-26T00:12:04.154Z,60.19
2018-04-26T00:14:37.734Z,60.15
2018-04-26T00:17:11.275Z,60.71
2018-04-26T00:19:44.935Z,60.77
2018-04-26T00:22:18.468Z,60.99
2018-04-26T00:24:52.132Z,61.24
2018-04-26T00:27:25.756Z,61.40
2018-04-26T00:29:59.538Z,61.34
2018-04-26T00:32:33.293Z,61.78
2018-04-26T00:35:06.744Z,61.84
2018-04-26T00:37:40.426Z,61.80
2018-04-26T00:40:13.986Z,61.55
2018-04-26T00:42:47.539Z,61.88
2018-04-26T00:45:21.188Z,61.96
2018-04-26T00:47:54.822Z,61.86
2018-04-26T00:50:28.620Z,61.55
2018-04-26T00:53:02.291Z,61.58
2018-04-26T00:55:36.136Z,61.70
2018-04-26T00:58:09.766Z,61.56
2018-04-26T01:00:43.321Z,61.99
2018-04-26T01:03:17.104Z,61.83
2018-04-26T01:05:50.671Z,61.78
2018-04-26T01:08:24.392Z,61.98
2018-04-26T01:10:57.945Z,62.29
2018-04-26T01:13:31.543Z,62.65
2018-04-26T01:16:05.460Z,62.87
2018-04-26T01:18:38.966Z,62.77
2018-04-26T01:21:12.615Z,63.04
2018-04-26T01:23:46.379Z,62.96
2018-04-26T01:26:20.037Z,63.66
2018-04-26T01:28:53.583Z,63.80
2018-04-26T01:31:27.245Z,64.29
2018-04-26T01:34:00.892Z,64.24
2018-04-26T01:36:46.308Z,63.90
2018-04-26T01:39:19.949Z,64.22
2018-04-26T01:41:53.544Z,64.36
2018-04-26T01:44:27.129Z,64.08
2018-04-26T01:47:00.822Z,64.45
2018-04-26T01:49:34.388Z,64.60
2018-04-26T01:52:08.036Z,64.43
2018-04-26T01:54:41.602Z,64.83
2018-04-26T01:57:15.123Z,64.80
2018-04-26T01:59:48.840Z,64.90
2018-04-26T02:02:22.392Z,64.89
2018-04-26T02:04:55.950Z,65.28
2018-04-26T02:07:29.500Z,65.25
2018-04-26T02:10:03.245Z,65.63
2018-04-26T02:12:36.844Z,65.45
2018-04-26T02:15:10.433Z,65.92
2018-04-26T02:17:44.003Z,65.53
2018-04-26T02:20:17.603Z,65.74
2018-04-26T02:22:51.202Z,66.18
2018-04-26T02:25:24.855Z,66.33
2018-04-26T02:27:58.375Z,66.03
2018-04-26T02:30:32.048Z,66.48
2018-04-26T02:33:05.702Z,66.76
2018-04-26T02:35:39.371Z,66.71
2018-04-26T02:38:12.895Z,66.72
2018-04-26T02:40:46.500Z,66.87
2018-04-26T02:43:20.024Z,66.67
2018-04-26T02:45:53.683Z,67.31
2018-04-26T02:48:27.211Z,67.70
2018-04-26T02:51:00.820Z,67.56
2018-04-26T02:53:34.476Z,67.52
2018-04-26T02:56:08.096Z,66.88
2018-04-26T02:58:41.681Z,66.97
2018-04-26T03:01:15.217Z,67.72
2018-04-26T03:03:48.849Z,68.28
2018-04-26T03:06:22.447Z,68.02
2018-04-26T03:08:56.236Z,68.47
2018-04-26T03:11:29.747Z,67.74
2018-04-26T03:14:03.399Z,68.40
2018-04-26T03:16:36.957Z,68.93
2018-04-26T03:19:10.622Z,68.70
2018-04-26T03:21:44.145Z,68.80
2018-04-26T03:24:17.796Z,68.96
2018-04-26T03:26:51.402Z,69.23
2018-04-26T03:29:25.120Z,68.95
2018-04-26T03:31:58.821Z,68.99
2018-04-26T03:34:32.503Z,68.89
2018-04-26T03:37:06.180Z,69.29
2018-04-26T03:39:39.824Z,69.20
2018-04-26T03:42:13.347Z,68.87
2018-04-26T03:44:47.009Z,69.22
2018-04-26T03:47:20.559Z,69.03
2018-04-26T03:49:54.339Z,69.37
2018-04-26T03:52:27.872Z,69.13
2018-04-26T03:55:01.519Z,69.50
2018-04-26T03:57:35.068Z,69.67
2018-04-26T04:00:20.679Z,69.93
2018-04-26T04:03:06.084Z,69.70
2018-04-26T04:05:52.038Z,69.69
2018-04-26T04:08:25.670Z,69.88
2018-04-26T04:10:59.220Z,70.34
2018-04-26T04:13:32.815Z,69.81
2018-04-26T04:16:06.424Z,70.16
2018-04-26T04:18:40.029Z,69.92
2018-04-26T04:21:13.700Z,69.21
2018-04-26T04:23:47.277Z,69.23
2018-04-26T04:26:20.914Z,69.68
2018-04-26T04:28:54.657Z,69.72
2018-04-26T04:31:28.337Z,70.13
2018-04-26T04:34:02.600Z,69.62
2018-04-26T04:36:36.219Z,69.42
2018-04-26T04:39:09.955Z,69.51
2018-04-26T04:41:43.524Z,69.06
2018-04-26T04:44:17.073Z,69.52
2018-04-26T04:46:50.697Z,69.41
2018-04-26T04:49:24.332Z,68.70
2018-04-26T04:51:57.975Z,68.45
2018-04-26T04:54:31.652Z,68.17
2018-04-26T04:57:05.220Z,68.62
2018-04-26T04:59:38.957Z,68.47
2018-04-26T05:02:12.643Z,68.08
2018-04-26T05:04:46.728Z,68.13
2018-04-26T05:07:20.362Z,68.20
2018-04-26T05:09:53.968Z,68.21
2018-04-26T05:12:27.659Z,67.95
2018-04-26T05:15:01.259Z,67.52
2018-04-26T05:17:34.893Z,67.33
2018-04-26T05:20:08.483Z,67.87
2018-04-26T05:22:42.062Z,67.62
2018-04-26T05:25:15.652Z,67.47
2018-04-26T05:27:49.324Z,66.90
2018-04-26T05:30:22.928Z,67.98
2018-04-26T05:32:56.608Z,67.78
2018-04-26T05:35:30.137Z,68.41
2018-04-26T05:38:03.842Z,69.18
2018-04-26T05:40:37.667Z,71.06
2018-04-26T05:43:11.177Z,72.50
2018-04-26T05:45:44.824Z,73.67
2018-04-26T05:48:18.397Z,73.90
2018-04-26T05:50:51.986Z,73.32
2018-04-26T05:53:25.732Z,73.31
2018-04-26T05:55:59.309Z,73.00
2018-04-26T05:58:32.952Z,73.12
2018-04-26T06:01:06.636Z,74.62
2018-04-26T06:03:40.192Z,75.29
2018-04-26T06:06:13.849Z,74.91
2018-04-26T06:08:47.420Z,74.87
2018-04-26T06:11:21.069Z,74.65
2018-04-26T06:13:54.640Z,74.55
2018-04-26T06:16:28.149Z,73.96
2018-04-26T06:19:01.680Z,73.43
2018-04-26T06:21:35.289Z,73.58
2018-04-26T06:24:08.871Z,73.28
2018-04-26T06:26:59.700Z,73.32
2018-04-26T06:29:33.493Z,72.43
2018-04-26T06:32:07.077Z,72.47
2018-04-26T06:34:40.614Z,72.58
2018-04-26T06:37:14.372Z,72.05
2018-04-26T06:39:47.948Z,71.36
2018-04-26T06:42:21.581Z,71.01
2018-04-26T06:44:55.175Z,72.78
2018-04-26T06:47:28.841Z,72.54
2018-04-26T06:50:02.580Z,70.95
2018-04-26T06:52:36.213Z,71.10
2018-04-26T06:55:09.899Z,71.81
2018-04-26T06:57:43.612Z,73.89
2018-04-26T07:00:17.179Z,74.25
2018-04-26T07:02:50.904Z,74.71
2018-04-26T07:05:24.992Z,73.99
2018-04-26T07:07:58.638Z,73.73
2018-04-26T07:10:32.324Z,73.87
2018-04-26T07:13:05.928Z,74.62
2018-04-26T07:15:39.530Z,74.50
2018-04-26T07:18:13.016Z,75.12
2018-04-26T07:20:46.579Z,75.16
2018-04-26T07:23:20.215Z,74.79
2018-04-26T07:25:53.960Z,74.97
2018-04-26T07:28:27.653Z,72.36
2018-04-26T07:31:01.228Z,68.11
2018-04-26T07:33:34.950Z,66.49
2018-04-26T07:36:08.575Z,65.42
2018-04-26T07:38:42.292Z,64.72
2018-04-26T07:41:15.859Z,63.28
2018-04-26T07:43:49.568Z,59.20
2018-04-26T07:46:23.316Z,59.13
2018-04-26T07:48:56.896Z,54.77
2018-04-26T07:51:30.655Z,55.02
2018-04-26T07:54:04.245Z,56.54
2018-04-26T07:56:37.972Z,57.39
2018-04-26T07:59:11.569Z,57.21
2018-04-26T08:01:45.352Z,58.40
2018-04-26T08:04:18.898Z,59.47
2018-04-26T08:06:52.536Z,59.88
2018-04-26T08:09:26.056Z,57.11
2018-04-26T08:11:59.728Z,53.05
2018-04-26T08:14:33.282Z,53.81
2018-04-26T08:17:06.992Z,53.28
2018-04-26T08:19:40.683Z,52.82
2018-04-26T08:22:14.306Z,50.18
2018-04-26T08:24:47.894Z,50.10
2018-04-26T08:27:21.586Z,53.69
2018-04-26T08:29:55.180Z,54.95
2018-04-26T08:32:28.779Z,56.25
2018-04-26T08:35:02.606Z,56.27
2018-04-26T08:37:36.315Z,55.19
2018-04-26T08:40:10.091Z,52.40
2018-04-26T08:42:43.609Z,52.46
2018-04-26T08:45:17.356Z,53.36
2018-04-26T08:47:51.048Z,57.48
2018-04-26T08:50:24.756Z,55.70
2018-04-26T08:52:58.287Z,53.80
2018-04-26T08:55:31.853Z,54.16
2018-04-26T08:58:05.583Z,55.19
2018-04-26T09:00:39.342Z,56.78
2018-04-26T09:03:13.060Z,57.94
2018-04-26T09:05:46.675Z,58.25
2018-04-26T09:08:20.439Z,60.75
2018-04-26T09:10:54.034Z,63.91
2018-04-26T09:13:27.625Z,68.87
2018-04-26T09:16:01.271Z,69.45
2018-04-26T09:18:34.807Z,68.64
2018-04-26T09:21:08.320Z,66.74
2018-04-26T09:23:41.854Z,62.54
2018-04-26T09:26:39.135Z,60.10
2018-04-26T09:29:12.773Z,58.44
2018-04-26T09:31:46.392Z,55.68
2018-04-26T09:34:19.929Z,52.15
2018-04-26T09:36:53.472Z,50.35
2018-04-26T09:39:26.999Z,50.55
2018-04-26T09:42:00.640Z,50.23
2018-04-26T09:44:34.304Z,50.92
2018-04-26T09:47:08.527Z,53.09
2018-04-26T09:49:42.043Z,54.26
2018-04-26T09:52:15.745Z,54.72
2018-04-26T09:54:49.391Z,55.57
2018-04-26T09:57:22.967Z,55.65
2018-04-26T09:59:56.504Z,52.05
2018-04-26T10:02:30.300Z,47.95
2018-04-26T10:05:03.888Z,47.47
2018-04-26T10:07:37.598Z,46.40
2018-04-26T10:10:11.370Z,46.32
2018-04-26T10:12:45.007Z,47.85
2018-04-26T10:15:18.760Z,44.77
2018-04-26T10:17:52.321Z,42.16
2018-04-26T10:20:25.843Z,41.75
2018-04-26T10:22:59.454Z,40.29
2018-04-26T10:25:33.116Z,37.96
2018-04-26T10:28:06.686Z,36.65
2018-04-26T10:30:40.226Z,41.82
2018-04-26T10:33:13.860Z,42.75
2018-04-26T10:35:47.360Z,45.32
2018-04-26T10:38:21.108Z,47.80
2018-04-26T10:40:54.692Z,47.51
2018-04-26T10:43:28.348Z,47.84
2018-04-26T10:46:02.202Z,47.48
2018-04-26T10:48:35.910Z,48.85
2018-04-26T10:51:09.590Z,48.04
2018-04-26T10:53:43.228Z,47.32
2018-04-26T10:56:16.798Z,43.50
2018-04-26T10:58:51.460Z,42.36
2018-04-26T11:01:25.203Z,40.72
2018-04-26T11:03:58.769Z,42.40
2018-04-26T11:06:32.552Z,42.44
2018-04-26T11:09:06.372Z,43.57
2018-04-26T11:11:40.184Z,43.25
2018-04-26T11:14:13.704Z,43.22
2018-04-26T11:16:47.476Z,42.22
2018-04-26T11:19:20.985Z,45.58
2018-04-26T11:21:54.712Z,51.30
2018-04-26T11:24:28.326Z,53.48
2018-04-26T11:27:02.068Z,58.94
2018-04-26T11:29:35.600Z,58.44
2018-04-26T11:32:09.243Z,55.55
2018-04-26T11:34:42.808Z,54.84
2018-04-26T11:37:16.462Z,47.65
2018-04-26T11:39:50.208Z,48.87
2018-04-26T11:42:23.982Z,46.17
2018-04-26T11:44:57.688Z,47.66
2018-04-26T11:47:31.417Z,49.94
2018-04-26T11:50:05.130Z,49.00
2018-04-26T11:52:38.798Z,47.76
2018-04-26T11:55:12.495Z,48.17
2018-04-26T11:57:45.974Z,44.77
2018-04-26T12:00:19.532Z,44.00
2018-04-26T12:02:53.157Z,45.38
2018-04-26T12:05:26.930Z,45.12
2018-04-26T12:08:00.561Z,44.95
2018-04-26T12:10:34.144Z,44.59
2018-04-26T12:13:07.866Z,45.81
2018-04-26T12:15:41.484Z,45.24
2018-04-26T12:18:15.122Z,45.70
2018-04-26T12:20:48.853Z,46.00
2018-04-26T12:23:22.495Z,44.63
2018-04-26T12:25:56.548Z,43.94
2018-04-26T12:28:30.209Z,44.24
2018-04-26T12:31:03.702Z,42.95
2018-04-26T12:33:37.269Z,43.70
2018-04-26T12:36:10.796Z,42.40
2018-04-26T12:38:44.396Z,43.23
2018-04-26T12:41:17.919Z,44.12
2018-04-26T12:43:51.511Z,42.20
2018-04-26T12:46:25.056Z,41.34
2018-04-26T12:48:58.795Z,40.89
2018-04-26T12:51:32.383Z,41.77
2018-04-26T12:54:05.915Z,41.10
2018-04-26T12:56:56.976Z,40.28
2018-04-26T12:59:30.683Z,41.07
2018-04-26T13:02:04.489Z,41.35
2018-04-26T13:04:38.026Z,41.92
2018-04-26T13:07:11.661Z,41.69
2018-04-26T13:09:45.192Z,41.03
2018-04-26T13:12:18.863Z,42.23
2018-04-26T13:14:52.343Z,40.15
2018-04-26T13:17:26.110Z,40.86
2018-04-26T13:19:59.653Z,41.07
2018-04-26T13:22:33.239Z,41.04
2018-04-26T13:25:06.906Z,39.86
2018-04-26T13:27:40.550Z,39.02
2018-04-26T13:30:14.123Z,40.15
2018-04-26T13:32:47.823Z,38.12
2018-04-26T13:35:21.352Z,38.17
2018-04-26T13:37:55.667Z,38.05
2018-04-26T13:40:29.400Z,38.74
2018-04-26T13:43:02.900Z,40.99
2018-04-26T13:45:36.456Z,39.61
2018-04-26T13:48:10.236Z,41.53
2018-04-26T13:50:44.012Z,43.41
2018-04-26T13:53:17.535Z,44.48
2018-04-26T13:55:51.252Z,49.23
2018-04-26T13:58:24.941Z,55.25
2018-04-26T14:00:58.656Z,57.87
2018-04-26T14:03:32.167Z,60.89
2018-04-26T14:06:05.704Z,61.90
2018-04-26T14:08:39.494Z,63.78
2018-04-26T14:11:13.193Z,59.43
2018-04-26T14:13:46.860Z,59.77
2018-04-26T14:16:20.397Z,59.21
2018-04-26T14:18:54.204Z,59.52
2018-04-26T14:21:27.742Z,56.55
2018-04-26T14:24:01.339Z,53.41
2018-04-26T14:26:34.894Z,51.60
2018-04-26T14:29:08.435Z,47.99
2018-04-26T14:31:42.025Z,43.81
2018-04-26T14:34:15.536Z,41.77
2018-04-26T14:36:49.092Z,44.66
2018-04-26T14:39:22.737Z,41.85
2018-04-26T14:41:56.272Z,40.51
2018-04-26T14:44:29.763Z,43.44
2018-04-26T14:47:03.346Z,41.09
2018-04-26T14:49:36.938Z,39.65
2018-04-26T14:52:10.561Z,39.32
2018-04-26T14:54:44.085Z,37.62
2018-04-26T14:57:17.860Z,38.15
2018-04-26T14:59:51.592Z,38.56
2018-04-26T15:02:25.133Z,38.16
2018-04-26T15:04:58.900Z,41.37
2018-04-26T15:07:32.407Z,40.31
2018-04-26T15:10:06.189Z,40.85
2018-04-26T15:12:39.836Z,40.77
2018-04-26T15:15:13.553Z,41.50
2018-04-26T15:17:47.246Z,41.46
2018-04-26T15:20:20.855Z,42.56
2018-04-26T15:22:54.604Z,41.90
2018-04-26T15:25:28.448Z,39.60
2018-04-26T15:28:01.994Z,36.04
2018-04-26T15:30:35.612Z,36.27
2018-04-26T15:33:09.137Z,38.41
2018-04-26T15:35:42.709Z,35.45
2018-04-26T15:38:16.393Z,35.98
2018-04-26T15:40:50.134Z,33.29
2018-04-26T15:43:23.645Z,32.95
2018-04-26T15:45:57.300Z,34.69
2018-04-26T15:48:30.830Z,35.28
2018-04-26T15:51:04.530Z,35.31
2018-04-26T15:56:54.722Z,37.37
2018-04-26T15:59:40.226Z,41.52
2018-04-26T16:02:31.805Z,43.56
2018-04-26T16:05:23.182Z,45.26
2018-04-26T16:08:14.520Z,46.28
2018-04-26T16:11:05.850Z,46.60
2018-04-26T16:13:57.296Z,47.27
2018-04-26T16:20:01.347Z,46.12
2018-04-26T16:22:52.672Z,46.41
2018-04-26T16:25:38.278Z,46.34
2018-04-26T16:28:29.665Z,47.37
2018-04-26T16:31:21.071Z,47.32
2018-04-26T16:34:05.712Z,47.14
2018-04-26T16:36:51.446Z,47.66
2018-04-26T16:39:25.282Z,48.78
2018-04-26T16:41:59.109Z,48.83
2018-04-26T16:44:32.920Z,47.52
2018-04-26T16:47:06.556Z,48.28
2018-04-26T16:49:40.091Z,47.00
2018-04-26T16:52:13.760Z,46.42
2018-04-26T16:54:47.377Z,45.16
2018-04-26T16:57:20.889Z,46.82
2018-04-26T16:59:54.523Z,48.37
2018-04-26T17:02:28.000Z,48.88
2018-04-26T17:05:01.869Z,49.56
2018-04-26T17:07:35.476Z,49.70
2018-04-26T17:10:09.310Z,49.66
2018-04-26T17:12:43.074Z,51.27
2018-04-26T17:15:16.966Z,50.50
2018-04-26T17:17:50.798Z,51.82
2018-04-26T17:20:24.316Z,52.47
2018-04-26T17:22:57.884Z,53.86
2018-04-26T17:25:31.544Z,54.22
2018-04-26T17:28:05.163Z,57.09
2018-04-26T17:30:38.796Z,58.54
2018-04-26T17:33:12.316Z,56.73
2018-04-26T17:35:45.900Z,58.46
2018-04-26T17:38:19.667Z,57.33
2018-04-26T17:40:53.480Z,55.60
2018-04-26T17:43:27.005Z,55.88
2018-04-26T17:46:00.610Z,56.27
2018-04-26T17:48:34.276Z,57.82
2018-04-26T17:51:07.898Z,59.04
2018-04-26T17:53:41.701Z,57.12
2018-04-26T17:56:15.305Z,58.78
2018-04-26T17:58:48.889Z,60.05
2018-04-26T18:01:22.469Z,58.79
2018-04-26T18:03:56.290Z,59.17
2018-04-26T18:06:29.952Z,58.24
2018-04-26T18:09:03.569Z,60.38
2018-04-26T18:11:37.353Z,59.74
2018-04-26T18:14:11.072Z,60.63
2018-04-26T18:16:44.976Z,60.29
2018-04-26T18:19:18.697Z,60.65
2018-04-26T18:21:52.397Z,60.67
2018-04-26T18:24:26.246Z,61.79
2018-04-26T18:27:00.034Z,61.92
2018-04-26T18:29:33.865Z,62.13
2018-04-26T18:32:07.613Z,62.81
2018-04-26T18:34:41.229Z,64.56
2018-04-26T18:37:15.064Z,63.80
2018-04-26T18:39:48.622Z,63.33
2018-04-26T18:42:22.241Z,64.44
2018-04-26T18:44:55.945Z,64.41
2018-04-26T18:47:29.589Z,63.61
2018-04-26T18:50:03.251Z,64.63
2018-04-26T18:52:36.932Z,64.95
2018-04-26T18:55:10.607Z,66.16
2018-04-26T18:57:44.312Z,64.06
2018-04-26T19:00:18.049Z,63.19
2018-04-26T19:02:51.641Z,63.85
2018-04-26T19:05:25.409Z,62.94
2018-04-26T19:07:59.064Z,63.56
2018-04-26T19:10:32.712Z,63.54
2018-04-26T19:13:06.410Z,62.66
2018-04-26T19:15:40.282Z,62.29
2018-04-26T19:18:14.085Z,61.36
2018-04-26T19:20:48.048Z,61.67
2018-04-26T19:23:21.699Z,62.32
2018-04-26T19:25:55.387Z,62.39
2018-04-26T19:28:29.016Z,62.24
2018-04-26T19:31:02.707Z,62.49
2018-04-26T19:33:36.253Z,63.66
2018-04-26T19:36:09.909Z,62.24
2018-04-26T19:38:43.542Z,61.96
2018-04-26T19:41:17.165Z,61.62
2018-04-26T19:43:50.933Z,61.33
2018-04-26T19:46:24.618Z,61.73
2018-04-26T19:48:58.320Z,61.51
2018-04-26T19:51:32.062Z,61.81
2018-04-26T19:54:05.625Z,61.84
2018-04-26T19:56:39.398Z,62.79
2018-04-26T19:59:13.277Z,62.90
2018-04-26T20:01:46.987Z,62.92
2018-04-26T20:04:20.549Z,62.96
2018-04-26T20:06:54.299Z,63.36
2018-04-26T20:09:28.007Z,63.45
2018-04-26T20:12:01.706Z,63.52
2018-04-26T20:14:35.464Z,63.80
2018-04-26T20:17:09.134Z,63.83
2018-04-26T20:19:42.769Z,63.95
2018-04-26T20:22:16.345Z,64.76
2018-04-26T20:24:50.125Z,64.39
2018-04-26T20:27:23.686Z,64.54
2018-04-26T20:29:57.345Z,64.31
2018-04-26T20:32:31.043Z,64.44
2018-04-26T20:35:04.866Z,64.63
2018-04-26T20:37:38.597Z,64.49
2018-04-26T20:40:16.329Z,64.60
2018-04-26T20:42:49.915Z,64.37
2018-04-26T20:45:23.529Z,64.80
2018-04-26T20:47:57.212Z,65.32
2018-04-26T20:50:31.114Z,65.67
2018-04-26T20:53:04.943Z,64.25
2018-04-26T20:55:38.548Z,64.00
2018-04-26T20:58:12.161Z,64.07
2018-04-26T21:00:46.103Z,65.17
2018-04-26T21:03:19.673Z,64.91
2018-04-26T21:05:53.364Z,65.08
2018-04-26T21:08:26.956Z,65.64
2018-04-26T21:11:00.477Z,65.80
2018-04-26T21:13:34.079Z,65.44
2018-04-26T21:16:07.720Z,65.68
2018-04-26T21:18:41.394Z,65.47
2018-04-26T21:21:14.974Z,65.45
2018-04-26T21:23:48.556Z,65.52
2018-04-26T21:26:22.062Z,65.48
2018-04-26T21:28:55.831Z,65.80
2018-04-26T21:31:29.476Z,66.87
2018-04-26T21:34:03.096Z,67.57
2018-04-26T21:36:36.706Z,67.23
2018-04-26T21:39:10.424Z,67.95
2018-04-26T21:41:44.027Z,68.44
2018-04-26T21:44:17.724Z,68.55
2018-04-26T21:46:51.310Z,68.62
2018-04-26T21:49:24.464Z,68.29
2018-04-26T21:52:03.828Z,68.39
2018-04-26T21:54:43.167Z,68.85
2018-04-26T21:57:22.508Z,68.87
2018-04-26T22:00:01.716Z,68.74
2018-04-26T22:02:35.080Z,68.44
2018-04-26T22:08:10.838Z,67.80
2018-04-26T22:10:44.499Z,68.62
2018-04-26T22:13:18.268Z,68.67
2018-04-26T22:15:51.779Z,69.50
2018-04-26T22:18:25.460Z,68.69
2018-04-26T22:20:59.151Z,68.90
2018-04-26T22:23:32.833Z,67.92
2018-04-26T22:26:06.541Z,67.88
2018-04-26T22:28:40.160Z,68.46
2018-04-26T22:31:13.781Z,69.13
2018-04-26T22:33:47.388Z,69.10
2018-04-26T22:36:23.990Z,68.78
2018-04-26T22:38:57.720Z,69.04
2018-04-26T22:41:31.379Z,68.99
2018-04-26T22:44:04.931Z,69.68
2018-04-26T22:46:38.623Z,69.84
2018-04-26T22:49:12.229Z,69.59
2018-04-26T22:51:45.760Z,69.25
2018-04-26T22:54:19.435Z,69.24
2018-04-26T22:56:53.189Z,69.35
2018-04-26T22:59:26.944Z,69.43
2018-04-26T23:02:00.596Z,69.60
2018-04-26T23:04:34.098Z,69.75
2018-04-26T23:07:07.660Z,70.10
2018-04-26T23:09:41.315Z,70.38
2018-04-26T23:12:14.948Z,70.41
2018-04-26T23:14:48.460Z,71.23
2018-04-26T23:17:21.997Z,71.32
2018-04-26T23:19:55.596Z,71.53
2018-04-26T23:22:29.188Z,71.77
2018-04-26T23:25:02.815Z,72.33
2018-04-26T23:27:36.433Z,71.37
2018-04-26T23:30:10.051Z,71.16
2018-04-26T23:32:43.664Z,70.62
2018-04-26T23:35:17.217Z,70.11
2018-04-26T23:37:51.016Z,69.87
2018-04-26T23:40:24.603Z,69.69
2018-04-26T23:42:58.167Z,69.43
2018-04-26T23:45:31.760Z,69.09
2018-04-26T23:48:05.404Z,68.18
2018-04-26T23:50:39.088Z,68.28
2018-04-26T23:53:12.644Z,67.55
2018-04-26T23:55:46.298Z,68.27
2018-04-26T23:58:19.824Z,67.96
